Hlavní strana
METAR-TAF:

METAR-TAF

Letiště :

Letiště Berlín-Tegel

Berlín, Německo

zeměpisná šířka: 52-34N, zeměpisná délka: 013-19E, výška: 37 m

Aktuální stav počasí

Zpráva byla vytvořena před 15 minutami, v 05:20 UTC
Východojihovýchodní vítr 6 kt
Teplota 4°C
Vlhkost vzduchu 81%
Tlak 1033 hPa
Viditelnost 10 km a více
Žádná oblačnost pod 1500 m, nevyskytují se cumulonimby.

METAR: EDDT 160520Z 11006KT CAVOK 04/01 Q1033 NOSIG

Čas: 06:35 (05:35 UTC)

Předpověď počasí

Zpráva byla vytvořena před 35 minutami, v 05:00 UTC
Předpověď platná od 16 v 06 UTC do 17 v 06 UTC
Východojihovýchodní vítr 9 kt
Viditelnost 10 km a více
Žádná oblačnost pod 1500 m, nevyskytují se cumulonimby.

TAF: EDDT 160500Z 1606/1706 11009KT CAVOK

Stav a předpovědi počasí z více než 4 000 letišť (zprávy METAR a TAF).

Červené a žluté tečky na mapě představují dostupné meteorologické stanice.

Když kurzor umístíte na tečku, zobrazí se název stanice.

Pak kliknutím zobrazíte stav a předpověď počasí.

Chcete-li změnit mapu, kliknutím na zelené tlačítko se znaménkem +mapu přiblížíte, kliknutím na zelené tlačítko se znaménkem – mapu oddálíte a kliknutím na zelené šipky přejdete na sousední mapy.


METAR-TAF: